createdAt,value
2018-06-21T00:01:23.403Z,64.28
2018-06-21T00:03:51.471Z,64.30
2018-06-21T00:06:20.172Z,64.38
2018-06-21T00:08:48.203Z,64.51
2018-06-21T00:11:16.534Z,64.60
2018-06-21T00:13:45.437Z,64.63
2018-06-21T00:16:13.492Z,65.11
2018-06-21T00:18:41.777Z,65.89
2018-06-21T00:21:10.462Z,66.26
2018-06-21T00:23:38.955Z,66.51
2018-06-21T00:26:07.052Z,66.63
2018-06-21T00:28:35.420Z,66.77
2018-06-21T00:31:03.667Z,66.52
2018-06-21T00:33:31.741Z,66.36
2018-06-21T00:36:00.645Z,66.30
2018-06-21T00:38:28.668Z,66.38
2018-06-21T00:40:56.822Z,66.43
2018-06-21T00:43:25.937Z,66.39
2018-06-21T00:45:54.329Z,66.44
2018-06-21T00:48:22.842Z,66.54
2018-06-21T00:50:51.627Z,66.47
2018-06-21T00:53:19.910Z,66.43
2018-06-21T00:55:59.192Z,66.55
2018-06-21T00:58:28.147Z,66.38
2018-06-21T01:00:56.433Z,66.51
2018-06-21T01:03:24.736Z,67.25
2018-06-21T01:05:53.801Z,67.98
2018-06-21T01:08:22.320Z,68.65
2018-06-21T01:10:50.868Z,68.90
2018-06-21T01:13:19.849Z,68.95
2018-06-21T01:15:48.176Z,69.06
2018-06-21T01:18:16.975Z,69.14
2018-06-21T01:20:45.449Z,69.17
2018-06-21T01:23:13.739Z,69.24
2018-06-21T01:25:41.852Z,69.42
2018-06-21T01:28:10.478Z,69.65
2018-06-21T01:30:38.705Z,69.78
2018-06-21T01:33:06.840Z,69.88
2018-06-21T01:35:35.801Z,69.73
2018-06-21T01:38:04.074Z,69.93
2018-06-21T01:40:32.410Z,69.89
2018-06-21T01:43:00.926Z,69.85
2018-06-21T01:45:29.366Z,69.82
2018-06-21T01:47:57.938Z,69.75
2018-06-21T01:50:26.284Z,69.76
2018-06-21T01:52:56.949Z,69.85
2018-06-21T01:55:27.266Z,69.95
2018-06-21T01:57:57.216Z,69.84
2018-06-21T02:00:25.823Z,69.82
2018-06-21T02:02:54.304Z,69.58
2018-06-21T02:05:23.234Z,69.42
2018-06-21T02:07:51.723Z,69.28
2018-06-21T02:10:19.742Z,69.18
2018-06-21T02:12:48.279Z,69.09
2018-06-21T02:15:16.533Z,69.10
2018-06-21T02:17:44.864Z,69.21
2018-06-21T02:20:13.168Z,69.40
2018-06-21T02:22:41.509Z,69.41
2018-06-21T02:25:09.659Z,69.29
2018-06-21T02:27:37.939Z,69.55
2018-06-21T02:30:05.999Z,69.62
2018-06-21T02:32:34.068Z,69.96
2018-06-21T02:35:02.098Z,70.15
2018-06-21T02:37:30.106Z,70.61
2018-06-21T02:39:58.364Z,70.87
2018-06-21T02:42:26.647Z,71.00
2018-06-21T02:44:54.939Z,70.96
2018-06-21T02:47:23.164Z,70.88
2018-06-21T02:49:51.603Z,70.92
2018-06-21T02:52:19.842Z,71.07
2018-06-21T02:54:48.112Z,71.23
2018-06-21T02:57:17.070Z,71.42
2018-06-21T02:59:47.523Z,71.54
2018-06-21T03:02:15.968Z,71.44
2018-06-21T03:04:44.387Z,71.36
2018-06-21T03:07:12.429Z,71.39
2018-06-21T03:09:41.390Z,71.57
2018-06-21T03:12:15.087Z,71.68
2018-06-21T03:14:43.099Z,71.68
2018-06-21T03:17:11.771Z,71.70
2018-06-21T03:19:39.786Z,71.90
2018-06-21T03:22:08.105Z,71.88
2018-06-21T03:24:36.576Z,72.04
2018-06-21T03:27:04.733Z,72.19
2018-06-21T03:29:33.190Z,72.42
2018-06-21T03:32:01.975Z,72.56
2018-06-21T03:34:30.453Z,72.72
2018-06-21T03:36:58.831Z,72.73
2018-06-21T03:39:27.421Z,72.84
2018-06-21T03:41:55.710Z,72.82
2018-06-21T03:44:23.724Z,72.84
2018-06-21T03:46:52.475Z,72.75
2018-06-21T03:49:20.464Z,72.78
2018-06-21T03:51:48.498Z,72.71
2018-06-21T03:54:17.226Z,72.72
2018-06-21T03:56:45.582Z,72.85
2018-06-21T03:59:13.635Z,73.13
2018-06-21T04:01:42.533Z,73.39
2018-06-21T04:04:10.552Z,73.59
2018-06-21T04:06:38.855Z,73.61
2018-06-21T04:09:08.755Z,73.89
2018-06-21T04:11:36.975Z,74.05
2018-06-21T04:14:05.509Z,74.19
2018-06-21T04:16:33.875Z,74.59
2018-06-21T04:19:01.905Z,74.60
2018-06-21T04:21:29.972Z,74.53
2018-06-21T04:23:58.784Z,74.50
2018-06-21T04:26:27.287Z,74.38
2018-06-21T04:28:55.619Z,74.27
2018-06-21T04:31:23.834Z,74.25
2018-06-21T04:33:51.966Z,74.23
2018-06-21T04:36:20.767Z,74.23
2018-06-21T04:38:48.842Z,74.10
2018-06-21T04:41:17.028Z,73.97
2018-06-21T04:43:45.914Z,73.81
2018-06-21T04:46:14.244Z,73.56
2018-06-21T04:48:42.830Z,73.45
2018-06-21T04:51:11.132Z,73.27
2018-06-21T04:53:39.459Z,73.22
2018-06-21T04:56:07.495Z,73.18
2018-06-21T04:58:36.064Z,73.12
2018-06-21T05:01:04.109Z,73.14
2018-06-21T05:03:32.995Z,73.08
2018-06-21T05:06:03.008Z,72.96
2018-06-21T05:08:32.807Z,73.05
2018-06-21T05:11:02.018Z,72.93
2018-06-21T05:13:31.509Z,73.23
2018-06-21T05:16:00.479Z,73.22
2018-06-21T05:18:28.647Z,73.24
2018-06-21T05:20:56.856Z,73.23
2018-06-21T05:23:26.758Z,73.31
2018-06-21T05:25:58.272Z,73.45
2018-06-21T05:28:28.355Z,73.31
2018-06-21T05:30:57.732Z,73.24
2018-06-21T05:33:27.130Z,73.05
2018-06-21T05:35:55.415Z,72.61
2018-06-21T05:38:26.286Z,72.25
2018-06-21T05:40:54.411Z,71.88
2018-06-21T05:43:23.006Z,71.16
2018-06-21T05:45:52.251Z,70.66
2018-06-21T05:48:21.983Z,70.27
2018-06-21T05:50:51.218Z,69.77
2018-06-21T05:53:20.945Z,69.22
2018-06-21T05:55:51.009Z,68.46
2018-06-21T05:58:19.737Z,68.31
2018-06-21T06:00:48.127Z,68.29
2018-06-21T06:03:16.227Z,68.35
2018-06-21T06:05:46.339Z,67.97
2018-06-21T06:08:14.359Z,67.64
2018-06-21T06:10:42.499Z,66.97
2018-06-21T06:13:11.061Z,66.48
2018-06-21T06:15:39.142Z,66.47
2018-06-21T06:18:08.081Z,66.01
2018-06-21T06:20:36.616Z,65.74
2018-06-21T06:23:06.467Z,65.50
2018-06-21T06:25:35.557Z,65.32
2018-06-21T06:28:06.605Z,64.96
2018-06-21T06:30:36.619Z,64.73
2018-06-21T06:33:08.939Z,64.42
2018-06-21T06:35:38.250Z,64.35
2018-06-21T06:38:09.794Z,63.77
2018-06-21T06:40:39.939Z,63.43
2018-06-21T06:43:11.417Z,63.11
2018-06-21T06:45:40.459Z,62.99
2018-06-21T06:48:09.883Z,62.67
2018-06-21T06:50:39.293Z,62.22
2018-06-21T06:53:09.378Z,61.78
2018-06-21T06:55:39.342Z,61.34
2018-06-21T06:58:09.532Z,61.08
2018-06-21T07:00:38.710Z,60.26
2018-06-21T07:03:08.146Z,59.98
2018-06-21T07:05:37.341Z,58.47
2018-06-21T07:08:06.716Z,56.84
2018-06-21T07:10:36.623Z,56.99
2018-06-21T07:13:06.747Z,55.60
2018-06-21T07:15:36.280Z,55.08
2018-06-21T07:18:06.277Z,53.54
2018-06-21T07:20:35.291Z,52.63
2018-06-21T07:23:04.411Z,51.86
2018-06-21T07:25:33.681Z,52.22
2018-06-21T07:28:02.987Z,52.42
2018-06-21T07:30:32.139Z,51.24
2018-06-21T07:33:02.090Z,50.96
2018-06-21T07:35:31.722Z,50.04
2018-06-21T07:38:01.668Z,49.11
2018-06-21T07:40:31.418Z,49.14
2018-06-21T07:43:00.592Z,49.00
2018-06-21T07:45:31.005Z,49.17
2018-06-21T07:48:01.363Z,49.16
2018-06-21T07:50:30.431Z,49.45
2018-06-21T07:52:59.916Z,48.83
2018-06-21T07:55:34.025Z,48.79
2018-06-21T07:58:03.162Z,48.79
2018-06-21T08:00:32.190Z,48.95
2018-06-21T08:03:01.932Z,49.72
2018-06-21T08:05:30.921Z,50.56
2018-06-21T08:08:00.989Z,50.63
2018-06-21T08:10:31.368Z,50.52
2018-06-21T08:13:01.096Z,50.18
2018-06-21T08:15:31.424Z,50.31
2018-06-21T08:18:00.648Z,50.20
2018-06-21T08:20:32.196Z,49.83
2018-06-21T08:23:03.296Z,50.05
2018-06-21T08:25:32.115Z,49.73
2018-06-21T08:28:00.138Z,49.61
2018-06-21T08:30:28.846Z,49.67
2018-06-21T08:32:57.588Z,49.52
2018-06-21T08:35:25.659Z,48.76
2018-06-21T08:37:53.695Z,48.63
2018-06-21T08:40:22.186Z,47.35
2018-06-21T08:42:50.423Z,46.15
2018-06-21T08:45:19.565Z,45.80
2018-06-21T08:47:47.916Z,47.14
2018-06-21T08:50:16.096Z,46.21
2018-06-21T08:52:44.791Z,45.49
2018-06-21T08:55:13.560Z,45.42
2018-06-21T08:57:41.789Z,45.10
2018-06-21T09:00:10.478Z,44.89
2018-06-21T09:02:38.870Z,44.07
2018-06-21T09:05:07.384Z,44.75
2018-06-21T09:07:36.139Z,44.97
2018-06-21T09:10:05.178Z,44.59
2018-06-21T09:12:37.611Z,44.41
2018-06-21T09:15:08.546Z,43.53
2018-06-21T09:17:36.777Z,41.31
2018-06-21T09:20:05.245Z,40.35
2018-06-21T09:22:33.470Z,38.86
2018-06-21T09:25:02.189Z,37.96
2018-06-21T09:27:30.588Z,34.27
2018-06-21T09:29:59.445Z,35.25
2018-06-21T09:32:29.107Z,34.61
2018-06-21T09:34:57.279Z,34.28
2018-06-21T09:37:30.805Z,34.59
2018-06-21T09:40:04.443Z,35.21
2018-06-21T09:42:37.937Z,35.35
2018-06-21T09:45:05.979Z,35.91
2018-06-21T09:50:16.611Z,37.09
2018-06-21T09:52:45.282Z,38.03
2018-06-21T09:55:13.347Z,37.60
2018-06-21T09:57:41.494Z,37.95
2018-06-21T10:00:14.334Z,38.19
2018-06-21T10:02:42.465Z,36.28
2018-06-21T10:05:10.803Z,36.96
2018-06-21T10:07:39.383Z,36.72
2018-06-21T10:10:07.476Z,37.36
2018-06-21T10:12:35.753Z,37.73
2018-06-21T10:15:05.223Z,38.29
2018-06-21T10:17:33.516Z,37.99
2018-06-21T10:20:02.459Z,38.06
2018-06-21T10:22:31.622Z,37.86
2018-06-21T10:24:59.685Z,38.00
2018-06-21T10:27:28.035Z,36.85
2018-06-21T10:29:57.276Z,36.28
2018-06-21T10:32:26.409Z,35.99
2018-06-21T10:34:54.913Z,35.77
2018-06-21T10:37:23.636Z,36.02
2018-06-21T10:39:52.318Z,37.01
2018-06-21T10:42:21.944Z,37.96
2018-06-21T10:44:51.649Z,38.78
2018-06-21T10:47:20.134Z,39.51
2018-06-21T10:49:49.644Z,40.40
2018-06-21T10:52:18.239Z,43.19
2018-06-21T10:54:46.320Z,47.62
2018-06-21T10:57:14.576Z,51.46
2018-06-21T10:59:42.899Z,53.65
2018-06-21T11:02:11.053Z,55.11
2018-06-21T11:04:40.302Z,55.10
2018-06-21T11:07:08.838Z,55.47
2018-06-21T11:09:36.873Z,56.18
2018-06-21T11:12:05.337Z,56.97
2018-06-21T11:14:34.180Z,58.23
2018-06-21T11:17:02.275Z,59.82
2018-06-21T11:19:30.734Z,61.37
2018-06-21T11:21:59.188Z,64.06
2018-06-21T11:24:27.635Z,66.35
2018-06-21T11:26:56.165Z,67.29
2018-06-21T11:29:24.677Z,70.23
2018-06-21T11:31:52.802Z,70.29
2018-06-21T11:34:20.926Z,70.47
2018-06-21T11:36:49.281Z,68.05
2018-06-21T11:39:17.446Z,67.87
2018-06-21T11:41:45.546Z,67.10
2018-06-21T11:44:13.792Z,66.34
2018-06-21T11:46:41.920Z,66.31
2018-06-21T11:49:10.602Z,66.56
2018-06-21T11:51:39.395Z,68.17
2018-06-21T11:54:07.459Z,68.95
2018-06-21T11:56:35.509Z,69.79
2018-06-21T11:59:03.897Z,70.69
2018-06-21T12:01:31.916Z,70.90
2018-06-21T12:04:03.661Z,71.86
2018-06-21T12:06:32.087Z,70.93
2018-06-21T12:09:00.226Z,71.06
2018-06-21T12:11:28.275Z,72.38
2018-06-21T12:13:56.744Z,72.34
2018-06-21T12:16:25.675Z,73.15
2018-06-21T12:18:53.913Z,73.68
2018-06-21T12:21:22.598Z,73.40
2018-06-21T12:23:50.916Z,72.80
2018-06-21T12:26:19.946Z,74.02
2018-06-21T12:28:48.935Z,73.42
2018-06-21T12:31:17.187Z,73.28
2018-06-21T12:33:45.498Z,73.02
2018-06-21T12:36:14.142Z,73.44
2018-06-21T12:38:42.540Z,73.35
2018-06-21T12:41:10.967Z,72.52
2018-06-21T12:43:39.391Z,72.50
2018-06-21T12:46:07.533Z,72.09
2018-06-21T12:48:35.566Z,71.22
2018-06-21T12:51:03.741Z,70.41
2018-06-21T12:53:32.268Z,70.35
2018-06-21T12:56:00.754Z,69.46
2018-06-21T12:58:28.814Z,69.53
2018-06-21T13:00:56.900Z,70.39
2018-06-21T13:03:25.942Z,70.43
2018-06-21T13:05:53.997Z,66.67
2018-06-21T13:08:33.506Z,66.68
2018-06-21T13:13:23.033Z,62.65
2018-06-21T13:15:51.413Z,60.08
2018-06-21T13:18:21.011Z,57.10
2018-06-21T13:20:49.686Z,54.83
2018-06-21T13:23:20.426Z,53.30
2018-06-21T13:25:49.519Z,53.51
2018-06-21T13:28:24.001Z,51.20
2018-06-21T13:30:52.302Z,50.66
2018-06-21T13:33:25.209Z,51.90
2018-06-21T13:35:54.169Z,47.41
2018-06-21T13:38:22.506Z,44.98
2018-06-21T13:40:51.636Z,44.20
2018-06-21T13:43:19.855Z,42.70
2018-06-21T13:45:48.011Z,42.78
2018-06-21T13:48:17.044Z,42.40
2018-06-21T13:50:45.568Z,41.92
2018-06-21T13:53:13.760Z,42.94
2018-06-21T13:55:43.079Z,42.22
2018-06-21T13:58:12.905Z,43.26
2018-06-21T14:00:41.640Z,43.03
2018-06-21T14:03:10.625Z,44.48
2018-06-21T14:05:39.153Z,44.54
2018-06-21T14:08:09.973Z,44.44
2018-06-21T14:10:45.615Z,44.39
2018-06-21T14:13:14.186Z,44.38
2018-06-21T14:15:42.594Z,44.63
2018-06-21T14:18:11.992Z,41.97
2018-06-21T14:20:40.380Z,38.68
2018-06-21T14:23:11.947Z,39.12
2018-06-21T14:25:40.550Z,37.50
2018-06-21T14:28:10.212Z,36.01
2018-06-21T14:30:39.382Z,35.58
2018-06-21T14:33:08.417Z,36.53
2018-06-21T14:35:36.998Z,36.05
2018-06-21T14:38:05.628Z,35.40
2018-06-21T14:40:36.399Z,35.17
2018-06-21T14:43:05.236Z,33.62
2018-06-21T14:45:33.820Z,32.54
2018-06-21T14:48:02.989Z,33.32
2018-06-21T14:50:33.206Z,32.08
2018-06-21T14:53:01.299Z,32.83
2018-06-21T14:55:29.532Z,33.34
2018-06-21T14:57:59.116Z,33.99
2018-06-21T15:00:28.254Z,34.57
2018-06-21T15:02:56.441Z,34.40
2018-06-21T15:05:25.843Z,32.53
2018-06-21T15:07:54.167Z,32.63
2018-06-21T15:10:22.362Z,31.89
2018-06-21T15:12:52.837Z,31.77
2018-06-21T15:15:21.836Z,32.53
2018-06-21T15:17:50.243Z,33.00
2018-06-21T15:20:18.900Z,31.35
2018-06-21T15:22:47.112Z,31.79
2018-06-21T15:25:15.243Z,32.10
2018-06-21T15:27:44.372Z,32.03
2018-06-21T15:30:12.775Z,31.03
2018-06-21T15:32:41.025Z,31.68
2018-06-21T15:35:09.546Z,30.04
2018-06-21T15:37:37.598Z,30.21
2018-06-21T15:40:06.180Z,30.22
2018-06-21T15:42:35.711Z,30.95
2018-06-21T15:45:05.488Z,31.68
2018-06-21T15:47:34.283Z,31.66
2018-06-21T15:50:07.009Z,31.19
2018-06-21T15:52:35.551Z,31.43
2018-06-21T15:55:03.791Z,31.11
2018-06-21T15:57:32.481Z,30.83
2018-06-21T16:00:01.045Z,31.28
2018-06-21T16:02:29.797Z,30.80
2018-06-21T16:04:58.056Z,30.44
2018-06-21T16:07:26.165Z,31.15
2018-06-21T16:09:54.276Z,31.05
2018-06-21T16:12:23.079Z,30.99
2018-06-21T16:14:51.814Z,31.11
2018-06-21T16:17:20.044Z,30.81
2018-06-21T16:19:50.082Z,31.29
2018-06-21T16:22:23.554Z,32.31
2018-06-21T16:24:52.180Z,31.91
2018-06-21T16:27:30.796Z,32.50
2018-06-21T16:30:03.829Z,32.45
2018-06-21T16:32:34.494Z,33.00
2018-06-21T16:35:07.901Z,32.38
2018-06-21T16:37:38.578Z,32.34
2018-06-21T16:40:08.439Z,32.33
2018-06-21T16:42:38.144Z,31.68
2018-06-21T16:45:06.624Z,31.97
2018-06-21T16:47:35.090Z,32.30
2018-06-21T16:50:03.940Z,32.28
2018-06-21T16:52:32.946Z,31.56
2018-06-21T16:55:01.795Z,31.65
2018-06-21T16:57:31.082Z,31.56
2018-06-21T17:00:00.860Z,31.34
2018-06-21T17:02:30.948Z,31.42
2018-06-21T17:05:00.601Z,32.01
2018-06-21T17:07:30.553Z,32.90
2018-06-21T17:09:58.617Z,32.93
2018-06-21T17:12:26.930Z,31.96
2018-06-21T17:14:55.031Z,31.64
2018-06-21T17:17:23.117Z,31.95
2018-06-21T17:19:51.146Z,31.29
2018-06-21T17:22:19.704Z,30.67
2018-06-21T17:24:48.189Z,31.25
2018-06-21T17:27:16.520Z,31.05
2018-06-21T17:29:44.720Z,31.04
2018-06-21T17:32:12.944Z,31.49
2018-06-21T17:34:41.450Z,32.00
2018-06-21T17:37:09.994Z,30.98
2018-06-21T17:39:38.520Z,30.92
2018-06-21T17:42:06.984Z,31.12
2018-06-21T17:44:35.419Z,31.80
2018-06-21T17:47:04.820Z,31.67
2018-06-21T17:49:33.119Z,31.61
2018-06-21T17:52:02.616Z,31.71
2018-06-21T17:54:33.712Z,32.41
2018-06-21T17:57:02.327Z,32.76
2018-06-21T17:59:32.498Z,32.78
2018-06-21T18:02:01.556Z,32.70
2018-06-21T18:04:30.058Z,32.45
2018-06-21T18:06:58.356Z,32.29
2018-06-21T18:09:26.539Z,32.39
2018-06-21T18:11:54.984Z,32.43
2018-06-21T18:14:23.917Z,32.74
2018-06-21T18:16:53.261Z,33.09
2018-06-21T18:19:21.927Z,33.12
2018-06-21T18:21:50.444Z,33.37
2018-06-21T18:24:18.826Z,33.46
2018-06-21T18:26:47.192Z,33.41
2018-06-21T18:29:16.006Z,33.95
2018-06-21T18:31:44.612Z,34.11
2018-06-21T18:34:13.464Z,33.67
2018-06-21T18:36:41.833Z,33.86
2018-06-21T18:39:11.559Z,34.31
2018-06-21T18:41:40.743Z,34.52
2018-06-21T18:44:09.255Z,34.90
2018-06-21T18:46:37.848Z,35.25
2018-06-21T18:49:07.437Z,35.67
2018-06-21T18:51:36.715Z,36.08
2018-06-21T18:54:05.519Z,36.25
2018-06-21T18:56:35.615Z,36.59
2018-06-21T18:59:06.345Z,36.91
2018-06-21T19:01:35.312Z,37.12
2018-06-21T19:04:03.916Z,37.29
2018-06-21T19:06:38.111Z,37.54
2018-06-21T19:09:13.327Z,37.89
2018-06-21T19:11:47.629Z,38.09
2018-06-21T19:14:15.950Z,38.24
2018-06-21T19:16:45.101Z,38.44
2018-06-21T19:19:17.702Z,38.57
2018-06-21T19:21:45.790Z,38.93
2018-06-21T19:24:14.180Z,39.18
2018-06-21T19:26:42.564Z,39.88
2018-06-21T19:29:11.320Z,39.72
2018-06-21T19:31:39.488Z,40.05
2018-06-21T19:34:09.004Z,40.40
2018-06-21T19:36:37.435Z,40.74
2018-06-21T19:39:08.876Z,40.98
2018-06-21T19:41:39.335Z,41.57
2018-06-21T19:44:12.039Z,41.54
2018-06-21T19:46:40.332Z,41.98
2018-06-21T19:49:08.813Z,42.50
2018-06-21T19:51:37.738Z,43.09
2018-06-21T19:54:05.861Z,43.24
2018-06-21T19:56:35.059Z,43.33
2018-06-21T19:59:04.252Z,43.61
2018-06-21T20:01:32.962Z,44.22
2018-06-21T20:04:02.911Z,44.75
2018-06-21T20:06:31.287Z,44.73
2018-06-21T20:08:59.404Z,45.68
2018-06-21T20:11:33.394Z,45.74
2018-06-21T20:14:02.126Z,46.26
2018-06-21T20:16:30.468Z,46.26
2018-06-21T20:19:08.462Z,46.67
2018-06-21T20:21:36.967Z,47.07
2018-06-21T20:24:05.353Z,47.41
2018-06-21T20:26:34.034Z,47.79
2018-06-21T20:29:02.248Z,47.78
2018-06-21T20:31:30.374Z,48.43
2018-06-21T20:33:58.687Z,48.87
2018-06-21T20:36:27.912Z,49.03
2018-06-21T20:38:56.451Z,48.96
2018-06-21T20:41:24.641Z,49.10
2018-06-21T20:43:52.802Z,49.04
2018-06-21T20:46:21.074Z,49.00
2018-06-21T20:48:49.675Z,49.20
2018-06-21T20:51:18.629Z,49.13
2018-06-21T20:53:46.942Z,49.23
2018-06-21T20:56:15.169Z,49.29
2018-06-21T20:58:44.097Z,49.27
2018-06-21T21:01:12.487Z,49.29
2018-06-21T21:03:41.049Z,49.11
2018-06-21T21:06:09.099Z,49.17
2018-06-21T21:08:37.267Z,49.34
2018-06-21T21:11:06.172Z,49.25
2018-06-21T21:13:36.922Z,49.32
2018-06-21T21:16:05.315Z,49.53
2018-06-21T21:18:33.884Z,49.90
2018-06-21T21:21:02.229Z,50.05
2018-06-21T21:23:30.554Z,50.18
2018-06-21T21:25:58.870Z,50.47
2018-06-21T21:28:27.209Z,50.72
2018-06-21T21:30:55.473Z,50.87
2018-06-21T21:33:24.692Z,51.36
2018-06-21T21:35:52.767Z,51.59
2018-06-21T21:38:21.242Z,51.94
2018-06-21T21:40:49.301Z,52.28
2018-06-21T21:43:17.588Z,52.48
2018-06-21T21:45:45.915Z,53.34
2018-06-21T21:48:14.257Z,53.89
2018-06-21T21:50:42.632Z,53.82
2018-06-21T21:53:10.967Z,53.81
2018-06-21T21:55:39.185Z,54.23
2018-06-21T21:58:07.439Z,54.65
2018-06-21T22:00:59.276Z,54.53
2018-06-21T22:03:27.963Z,54.62
2018-06-21T22:05:56.256Z,55.80
2018-06-21T22:08:24.795Z,56.53
2018-06-21T22:10:52.920Z,57.09
2018-06-21T22:13:21.008Z,57.52
2018-06-21T22:15:49.465Z,57.89
2018-06-21T22:18:17.750Z,57.89
2018-06-21T22:20:46.082Z,57.60
2018-06-21T22:23:14.199Z,57.18
2018-06-21T22:25:42.236Z,57.19
2018-06-21T22:28:11.151Z,57.28
2018-06-21T22:30:39.812Z,57.50
2018-06-21T22:33:08.626Z,57.73
2018-06-21T22:35:36.679Z,57.59
2018-06-21T22:38:06.725Z,58.03
2018-06-21T22:43:45.106Z,58.21
2018-06-21T22:46:13.439Z,58.56
2018-06-21T22:48:41.487Z,58.98
2018-06-21T22:51:09.550Z,58.86
2018-06-21T22:53:37.918Z,58.67
2018-06-21T22:56:05.980Z,58.94
2018-06-21T22:58:34.380Z,59.03
2018-06-21T23:01:02.970Z,60.04
2018-06-21T23:03:31.335Z,61.34
2018-06-21T23:05:59.607Z,61.03
2018-06-21T23:08:28.360Z,60.78
2018-06-21T23:10:56.499Z,60.89
2018-06-21T23:13:24.495Z,60.53
2018-06-21T23:15:52.590Z,60.97
2018-06-21T23:18:31.859Z,61.19
2018-06-21T23:21:00.166Z,61.15
2018-06-21T23:23:28.467Z,61.08
2018-06-21T23:25:56.484Z,61.12
2018-06-21T23:28:24.828Z,61.00
2018-06-21T23:30:52.858Z,61.32
2018-06-21T23:33:21.334Z,61.88
2018-06-21T23:35:49.619Z,61.96
2018-06-21T23:38:17.929Z,62.66
2018-06-21T23:40:45.971Z,62.60
2018-06-21T23:43:14.062Z,62.69
2018-06-21T23:45:42.449Z,62.42
2018-06-21T23:48:11.353Z,62.96
2018-06-21T23:50:39.646Z,62.68
2018-06-21T23:53:07.688Z,63.03
2018-06-21T23:55:35.741Z,63.33
2018-06-21T23:58:04.146Z,63.72
